sensor_id;sensor_type;location;lat;lon;timestamp;temperature;humidity
71173;DHT22;58875;51.996;4.504;2022-12-10T00:01:17;0.91;89.47
71173;DHT22;58875;51.996;4.504;2022-12-10T00:03:44;0.93;89.49
71173;DHT22;58875;51.996;4.504;2022-12-10T00:06:18;0.87;89.30
71173;DHT22;58875;51.996;4.504;2022-12-10T00:08:44;0.88;89.54
71173;DHT22;58875;51.996;4.504;2022-12-10T00:11:12;0.81;89.41
71173;DHT22;58875;51.996;4.504;2022-12-10T00:13:39;0.88;89.39
71173;DHT22;58875;51.996;4.504;2022-12-10T00:16:07;0.85;89.34
71173;DHT22;58875;51.996;4.504;2022-12-10T00:18:34;0.82;89.41
71173;DHT22;58875;51.996;4.504;2022-12-10T00:21:09;0.87;89.17
71173;DHT22;58875;51.996;4.504;2022-12-10T00:23:36;0.88;88.93
71173;DHT22;58875;51.996;4.504;2022-12-10T00:26:07;0.87;88.84
71173;DHT22;58875;51.996;4.504;2022-12-10T00:28:33;0.82;88.74
71173;DHT22;58875;51.996;4.504;2022-12-10T00:31:32;0.87;88.64
71173;DHT22;58875;51.996;4.504;2022-12-10T00:34:02;0.84;88.63
71173;DHT22;58875;51.996;4.504;2022-12-10T00:36:40;0.77;88.71
71173;DHT22;58875;51.996;4.504;2022-12-10T00:39:09;0.75;88.69
71173;DHT22;58875;51.996;4.504;2022-12-10T00:41:35;0.67;88.94
71173;DHT22;58875;51.996;4.504;2022-12-10T00:44:00;0.61;89.01
71173;DHT22;58875;51.996;4.504;2022-12-10T00:46:27;0.61;89.26
71173;DHT22;58875;51.996;4.504;2022-12-10T00:48:53;0.62;89.26
71173;DHT22;58875;51.996;4.504;2022-12-10T00:51:28;0.70;88.99
71173;DHT22;58875;51.996;4.504;2022-12-10T00:53:56;0.65;88.69
71173;DHT22;58875;51.996;4.504;2022-12-10T00:56:25;0.64;88.58
71173;DHT22;58875;51.996;4.504;2022-12-10T00:58:52;0.65;88.56
71173;DHT22;58875;51.996;4.504;2022-12-10T01:03:52;0.72;88.34
71173;DHT22;58875;51.996;4.504;2022-12-10T01:06:23;0.68;88.30
71173;DHT22;58875;51.996;4.504;2022-12-10T01:08:51;0.67;88.39
71173;DHT22;58875;51.996;4.504;2022-12-10T01:11:20;0.64;88.71
71173;DHT22;58875;51.996;4.504;2022-12-10T01:13:48;0.65;88.67
71173;DHT22;58875;51.996;4.504;2022-12-10T01:16:17;0.68;88.87
71173;DHT22;58875;51.996;4.504;2022-12-10T01:18:43;0.68;88.84
71173;DHT22;58875;51.996;4.504;2022-12-10T01:21:12;0.71;88.90
71173;DHT22;58875;51.996;4.504;2022-12-10T01:23:40;0.74;88.96
71173;DHT22;58875;51.996;4.504;2022-12-10T01:26:10;0.84;88.96
71173;DHT22;58875;51.996;4.504;2022-12-10T01:28:37;0.84;88.92
71173;DHT22;58875;51.996;4.504;2022-12-10T01:31:09;0.87;88.85
71173;DHT22;58875;51.996;4.504;2022-12-10T01:33:35;0.87;88.91
71173;DHT22;58875;51.996;4.504;2022-12-10T01:36:10;0.93;89.09
71173;DHT22;58875;51.996;4.504;2022-12-10T01:38:37;0.93;89.05
71173;DHT22;58875;51.996;4.504;2022-12-10T01:41:03;0.92;89.02
71173;DHT22;58875;51.996;4.504;2022-12-10T01:46:13;0.92;89.39
71173;DHT22;58875;51.996;4.504;2022-12-10T01:48:39;0.98;89.24
71173;DHT22;58875;51.996;4.504;2022-12-10T01:51:05;1.05;89.25
71173;DHT22;58875;51.996;4.504;2022-12-10T01:53:31;1.11;89.01
71173;DHT22;58875;51.996;4.504;2022-12-10T01:55:57;1.09;89.18
71173;DHT22;58875;51.996;4.504;2022-12-10T01:58:22;1.09;89.06
71173;DHT22;58875;51.996;4.504;2022-12-10T02:01:21;1.18;89.17
71173;DHT22;58875;51.996;4.504;2022-12-10T02:04:19;1.18;88.89
71173;DHT22;58875;51.996;4.504;2022-12-10T02:07:14;1.13;89.28
71173;DHT22;58875;51.996;4.504;2022-12-10T02:09:43;1.16;89.14
71173;DHT22;58875;51.996;4.504;2022-12-10T02:12:36;1.13;89.28
71173;DHT22;58875;51.996;4.504;2022-12-10T02:15:19;1.08;89.44
71173;DHT22;58875;51.996;4.504;2022-12-10T02:18:14;1.05;89.73
71173;DHT22;58875;51.996;4.504;2022-12-10T02:20:50;1.09;89.76
71173;DHT22;58875;51.996;4.504;2022-12-10T02:23:27;1.12;89.79
71173;DHT22;58875;51.996;4.504;2022-12-10T02:26:03;1.13;89.79
71173;DHT22;58875;51.996;4.504;2022-12-10T02:28:43;1.21;89.62
71173;DHT22;58875;51.996;4.504;2022-12-10T02:31:14;1.18;89.80
71173;DHT22;58875;51.996;4.504;2022-12-10T02:33:47;1.25;89.66
71173;DHT22;58875;51.996;4.504;2022-12-10T02:36:15;1.25;89.65
71173;DHT22;58875;51.996;4.504;2022-12-10T02:38:43;1.26;89.68
71173;DHT22;58875;51.996;4.504;2022-12-10T02:41:16;1.26;89.53
71173;DHT22;58875;51.996;4.504;2022-12-10T02:43:46;1.29;89.66
71173;DHT22;58875;51.996;4.504;2022-12-10T02:46:13;1.35;89.61
71173;DHT22;58875;51.996;4.504;2022-12-10T02:48:40;1.33;89.42
71173;DHT22;58875;51.996;4.504;2022-12-10T02:51:06;1.38;89.57
71173;DHT22;58875;51.996;4.504;2022-12-10T02:53:31;1.35;89.53
71173;DHT22;58875;51.996;4.504;2022-12-10T02:56:09;1.31;89.38
71173;DHT22;58875;51.996;4.504;2022-12-10T03:04:45;1.25;89.75
71173;DHT22;58875;51.996;4.504;2022-12-10T03:07:25;1.23;89.93
71173;DHT22;58875;51.996;4.504;2022-12-10T03:10:24;1.22;89.99
71173;DHT22;58875;51.996;4.504;2022-12-10T03:12:54;1.11;90.40
71173;DHT22;58875;51.996;4.504;2022-12-10T03:15:25;1.25;90.24
71173;DHT22;58875;51.996;4.504;2022-12-10T03:17:54;1.29;90.00
71173;DHT22;58875;51.996;4.504;2022-12-10T03:20:23;1.28;89.76
71173;DHT22;58875;51.996;4.504;2022-12-10T03:22:49;1.25;90.13
71173;DHT22;58875;51.996;4.504;2022-12-10T03:25:22;1.09;90.44
71173;DHT22;58875;51.996;4.504;2022-12-10T03:27:51;1.18;90.24
71173;DHT22;58875;51.996;4.504;2022-12-10T03:30:19;1.21;90.34
71173;DHT22;58875;51.996;4.504;2022-12-10T03:32:45;1.25;90.20
71173;DHT22;58875;51.996;4.504;2022-12-10T03:35:12;1.16;90.16
71173;DHT22;58875;51.996;4.504;2022-12-10T03:37:39;1.22;90.26
71173;DHT22;58875;51.996;4.504;2022-12-10T03:40:06;1.13;90.32
71173;DHT22;58875;51.996;4.504;2022-12-10T03:42:35;1.19;90.46
71173;DHT22;58875;51.996;4.504;2022-12-10T03:45:00;1.22;90.31
71173;DHT22;58875;51.996;4.504;2022-12-10T03:47:26;1.21;90.21
71173;DHT22;58875;51.996;4.504;2022-12-10T03:49:51;1.13;90.47
71173;DHT22;58875;51.996;4.504;2022-12-10T03:52:17;1.16;90.50
71173;DHT22;58875;51.996;4.504;2022-12-10T03:54:42;1.25;90.47
71173;DHT22;58875;51.996;4.504;2022-12-10T03:57:08;1.32;90.28
71173;DHT22;58875;51.996;4.504;2022-12-10T03:59:33;1.16;90.39
71173;DHT22;58875;51.996;4.504;2022-12-10T04:01:59;1.32;90.60
71173;DHT22;58875;51.996;4.504;2022-12-10T04:04:25;1.31;90.44
71173;DHT22;58875;51.996;4.504;2022-12-10T04:06:50;1.25;90.25
71173;DHT22;58875;51.996;4.504;2022-12-10T04:09:16;1.29;90.51
71173;DHT22;58875;51.996;4.504;2022-12-10T04:11:42;1.25;90.52
71173;DHT22;58875;51.996;4.504;2022-12-10T04:14:09;1.29;90.55
71173;DHT22;58875;51.996;4.504;2022-12-10T04:16:54;1.23;90.42
71173;DHT22;58875;51.996;4.504;2022-12-10T04:19:20;1.36;90.64
71173;DHT22;58875;51.996;4.504;2022-12-10T04:21:46;1.26;90.33
71173;DHT22;58875;51.996;4.504;2022-12-10T04:24:34;1.13;90.86
71173;DHT22;58875;51.996;4.504;2022-12-10T04:29:48;1.25;90.96
71173;DHT22;58875;51.996;4.504;2022-12-10T04:32:14;1.32;90.56
71173;DHT22;58875;51.996;4.504;2022-12-10T04:34:40;1.19;90.71
71173;DHT22;58875;51.996;4.504;2022-12-10T04:37:05;1.25;90.75
71173;DHT22;58875;51.996;4.504;2022-12-10T04:39:32;1.28;90.70
71173;DHT22;58875;51.996;4.504;2022-12-10T04:41:59;1.11;90.98
71173;DHT22;58875;51.996;4.504;2022-12-10T04:44:25;1.21;91.13
71173;DHT22;58875;51.996;4.504;2022-12-10T04:46:50;1.31;90.88
71173;DHT22;58875;51.996;4.504;2022-12-10T04:49:16;1.35;90.66
71173;DHT22;58875;51.996;4.504;2022-12-10T04:51:42;1.29;90.76
71173;DHT22;58875;51.996;4.504;2022-12-10T04:54:08;1.23;90.65
71173;DHT22;58875;51.996;4.504;2022-12-10T04:56:34;1.28;90.87
71173;DHT22;58875;51.996;4.504;2022-12-10T04:59:01;1.31;90.80
71173;DHT22;58875;51.996;4.504;2022-12-10T05:01:27;1.35;90.76
71173;DHT22;58875;51.996;4.504;2022-12-10T05:03:53;1.36;90.63
71173;DHT22;58875;51.996;4.504;2022-12-10T05:06:19;1.36;90.82
71173;DHT22;58875;51.996;4.504;2022-12-10T05:08:45;1.38;90.65
71173;DHT22;58875;51.996;4.504;2022-12-10T05:11:14;1.50;90.50
71173;DHT22;58875;51.996;4.504;2022-12-10T05:13:40;1.59;90.46
71173;DHT22;58875;51.996;4.504;2022-12-10T05:16:08;1.54;90.20
71173;DHT22;58875;51.996;4.504;2022-12-10T05:18:35;1.62;90.18
71173;DHT22;58875;51.996;4.504;2022-12-10T05:21:03;1.49;89.93
71173;DHT22;58875;51.996;4.504;2022-12-10T05:23:29;1.49;90.15
71173;DHT22;58875;51.996;4.504;2022-12-10T05:26:05;1.54;90.11
71173;DHT22;58875;51.996;4.504;2022-12-10T05:28:41;1.47;90.18
71173;DHT22;58875;51.996;4.504;2022-12-10T05:31:23;1.49;90.21
71173;DHT22;58875;51.996;4.504;2022-12-10T05:33:49;1.56;90.24
71173;DHT22;58875;51.996;4.504;2022-12-10T05:36:18;1.54;90.26
71173;DHT22;58875;51.996;4.504;2022-12-10T05:38:44;1.54;90.15
71173;DHT22;58875;51.996;4.504;2022-12-10T05:41:15;1.49;90.21
71173;DHT22;58875;51.996;4.504;2022-12-10T05:43:43;1.50;90.23
71173;DHT22;58875;51.996;4.504;2022-12-10T05:46:16;1.49;90.32
71173;DHT22;58875;51.996;4.504;2022-12-10T05:48:43;1.40;90.46
71173;DHT22;58875;51.996;4.504;2022-12-10T05:51:11;1.31;90.75
71173;DHT22;58875;51.996;4.504;2022-12-10T05:53:38;1.32;90.72
71173;DHT22;58875;51.996;4.504;2022-12-10T05:56:10;1.40;90.60
71173;DHT22;58875;51.996;4.504;2022-12-10T05:58:37;1.35;90.44
71173;DHT22;58875;51.996;4.504;2022-12-10T06:01:21;1.31;90.71
71173;DHT22;58875;51.996;4.504;2022-12-10T06:03:47;1.36;90.89
71173;DHT22;58875;51.996;4.504;2022-12-10T06:06:23;1.52;90.74
71173;DHT22;58875;51.996;4.504;2022-12-10T06:08:50;1.62;90.48
71173;DHT22;58875;51.996;4.504;2022-12-10T06:11:16;1.63;90.17
71173;DHT22;58875;51.996;4.504;2022-12-10T06:13:41;1.64;89.92
71173;DHT22;58875;51.996;4.504;2022-12-10T06:16:10;1.60;89.97
71173;DHT22;58875;51.996;4.504;2022-12-10T06:18:36;1.60;90.01
71173;DHT22;58875;51.996;4.504;2022-12-10T06:21:06;1.60;90.08
71173;DHT22;58875;51.996;4.504;2022-12-10T06:23:34;1.63;90.15
71173;DHT22;58875;51.996;4.504;2022-12-10T06:26:06;1.70;90.02
71173;DHT22;58875;51.996;4.504;2022-12-10T06:28:31;1.67;89.75
71173;DHT22;58875;51.996;4.504;2022-12-10T06:30:59;1.53;89.84
71173;DHT22;58875;51.996;4.504;2022-12-10T06:33:25;1.53;89.97
71173;DHT22;58875;51.996;4.504;2022-12-10T06:35:51;1.49;89.92
71173;DHT22;58875;51.996;4.504;2022-12-10T06:38:16;1.43;90.02
71173;DHT22;58875;51.996;4.504;2022-12-10T06:40:42;1.33;90.28
71173;DHT22;58875;51.996;4.504;2022-12-10T06:43:07;1.38;90.44
71173;DHT22;58875;51.996;4.504;2022-12-10T06:45:33;1.46;90.48
71173;DHT22;58875;51.996;4.504;2022-12-10T06:47:58;1.40;90.27
71173;DHT22;58875;51.996;4.504;2022-12-10T06:50:24;1.43;90.47
71173;DHT22;58875;51.996;4.504;2022-12-10T06:52:50;1.56;90.45
71173;DHT22;58875;51.996;4.504;2022-12-10T06:55:16;1.53;90.08
71173;DHT22;58875;51.996;4.504;2022-12-10T06:57:42;1.54;90.15
71173;DHT22;58875;51.996;4.504;2022-12-10T07:00:08;1.54;89.90
71173;DHT22;58875;51.996;4.504;2022-12-10T07:02:34;1.54;89.85
71173;DHT22;58875;51.996;4.504;2022-12-10T07:05:00;1.44;90.00
71173;DHT22;58875;51.996;4.504;2022-12-10T07:07:25;1.43;90.16
71173;DHT22;58875;51.996;4.504;2022-12-10T07:09:51;1.43;90.04
71173;DHT22;58875;51.996;4.504;2022-12-10T07:12:16;1.54;90.23
71173;DHT22;58875;51.996;4.504;2022-12-10T07:14:42;1.64;89.91
71173;DHT22;58875;51.996;4.504;2022-12-10T07:17:07;1.50;89.73
71173;DHT22;58875;51.996;4.504;2022-12-10T07:19:33;1.38;89.94
71173;DHT22;58875;51.996;4.504;2022-12-10T07:21:58;1.38;90.45
71173;DHT22;58875;51.996;4.504;2022-12-10T07:24:24;1.52;90.27
71173;DHT22;58875;51.996;4.504;2022-12-10T07:26:50;1.43;90.21
71173;DHT22;58875;51.996;4.504;2022-12-10T07:29:18;1.42;90.25
71173;DHT22;58875;51.996;4.504;2022-12-10T07:31:44;1.46;90.40
71173;DHT22;58875;51.996;4.504;2022-12-10T07:34:11;1.54;90.28
71173;DHT22;58875;51.996;4.504;2022-12-10T07:36:37;1.62;90.25
71173;DHT22;58875;51.996;4.504;2022-12-10T07:39:06;1.60;90.26
71173;DHT22;58875;51.996;4.504;2022-12-10T07:41:33;1.59;89.94
71173;DHT22;58875;51.996;4.504;2022-12-10T07:43:58;1.77;90.08
71173;DHT22;58875;51.996;4.504;2022-12-10T07:46:28;1.68;89.58
71173;DHT22;58875;51.996;4.504;2022-12-10T07:48:54;1.78;89.86
71173;DHT22;58875;51.996;4.504;2022-12-10T07:51:22;1.83;89.48
71173;DHT22;58875;51.996;4.504;2022-12-10T07:53:51;1.74;89.57
71173;DHT22;58875;51.996;4.504;2022-12-10T07:56:17;1.80;89.57
71173;DHT22;58875;51.996;4.504;2022-12-10T07:58:44;1.75;89.28
71173;DHT22;58875;51.996;4.504;2022-12-10T08:01:13;1.63;89.58
71173;DHT22;58875;51.996;4.504;2022-12-10T08:03:39;1.68;89.73
71173;DHT22;58875;51.996;4.504;2022-12-10T08:06:11;1.59;89.66
71173;DHT22;58875;51.996;4.504;2022-12-10T08:08:39;1.64;89.96
71173;DHT22;58875;51.996;4.504;2022-12-10T08:11:05;1.66;89.69
71173;DHT22;58875;51.996;4.504;2022-12-10T08:13:32;1.77;89.89
71173;DHT22;58875;51.996;4.504;2022-12-10T08:16:07;1.93;89.85
71173;DHT22;58875;51.996;4.504;2022-12-10T08:18:34;1.91;89.03
71173;DHT22;58875;51.996;4.504;2022-12-10T08:21:09;1.78;89.29
71173;DHT22;58875;51.996;4.504;2022-12-10T08:23:35;1.68;89.55
71173;DHT22;58875;51.996;4.504;2022-12-10T08:26:05;1.68;89.82
71173;DHT22;58875;51.996;4.504;2022-12-10T08:28:32;1.70;89.84
71173;DHT22;58875;51.996;4.504;2022-12-10T08:30:57;1.66;89.71
71173;DHT22;58875;51.996;4.504;2022-12-10T08:33:23;1.60;89.77
71173;DHT22;58875;51.996;4.504;2022-12-10T08:35:48;1.36;89.95
71173;DHT22;58875;51.996;4.504;2022-12-10T08:38:14;1.46;90.44
71173;DHT22;58875;51.996;4.504;2022-12-10T08:40:41;1.40;90.43
71173;DHT22;58875;51.996;4.504;2022-12-10T08:43:07;1.50;90.46
71173;DHT22;58875;51.996;4.504;2022-12-10T08:45:33;1.52;90.26
71173;DHT22;58875;51.996;4.504;2022-12-10T08:48:00;1.54;90.36
71173;DHT22;58875;51.996;4.504;2022-12-10T08:50:26;1.63;89.99
71173;DHT22;58875;51.996;4.504;2022-12-10T08:52:52;1.60;89.97
71173;DHT22;58875;51.996;4.504;2022-12-10T08:55:17;1.67;89.93
71173;DHT22;58875;51.996;4.504;2022-12-10T08:57:43;1.75;89.93
71173;DHT22;58875;51.996;4.504;2022-12-10T09:00:09;1.85;89.67
71173;DHT22;58875;51.996;4.504;2022-12-10T09:02:34;1.77;89.39
71173;DHT22;58875;51.996;4.504;2022-12-10T09:05:00;1.73;89.44
71173;DHT22;58875;51.996;4.504;2022-12-10T09:07:26;1.57;89.86
71173;DHT22;58875;51.996;4.504;2022-12-10T09:09:52;1.43;89.88
71173;DHT22;58875;51.996;4.504;2022-12-10T09:12:17;1.50;90.04
71173;DHT22;58875;51.996;4.504;2022-12-10T09:14:43;1.50;89.77
71173;DHT22;58875;51.996;4.504;2022-12-10T09:17:08;1.64;89.82
71173;DHT22;58875;51.996;4.504;2022-12-10T09:19:34;1.67;89.44
71173;DHT22;58875;51.996;4.504;2022-12-10T09:21:59;1.52;89.23
71173;DHT22;58875;51.996;4.504;2022-12-10T09:24:25;1.47;89.47
71173;DHT22;58875;51.996;4.504;2022-12-10T09:26:51;1.31;89.64
71173;DHT22;58875;51.996;4.504;2022-12-10T09:29:16;1.35;89.89
71173;DHT22;58875;51.996;4.504;2022-12-10T09:31:42;1.38;89.90
71173;DHT22;58875;51.996;4.504;2022-12-10T09:34:08;1.32;89.86
71173;DHT22;58875;51.996;4.504;2022-12-10T09:36:33;1.50;90.13
71173;DHT22;58875;51.996;4.504;2022-12-10T09:39:00;1.49;89.52
71173;DHT22;58875;51.996;4.504;2022-12-10T09:41:50;1.50;89.39
71173;DHT22;58875;51.996;4.504;2022-12-10T09:46:57;1.66;89.19
71173;DHT22;58875;51.996;4.504;2022-12-10T09:52:20;1.46;89.26
71173;DHT22;58875;51.996;4.504;2022-12-10T09:54:57;1.59;89.45
71173;DHT22;58875;51.996;4.504;2022-12-10T09:57:29;1.57;89.19
71173;DHT22;58875;51.996;4.504;2022-12-10T10:02:50;1.64;89.34
71173;DHT22;58875;51.996;4.504;2022-12-10T10:05:27;1.74;89.30
71173;DHT22;58875;51.996;4.504;2022-12-10T10:07:55;1.90;89.10
71173;DHT22;58875;51.996;4.504;2022-12-10T10:10:37;1.85;88.69
71173;DHT22;58875;51.996;4.504;2022-12-10T10:15:34;1.67;89.09
71173;DHT22;58875;51.996;4.504;2022-12-10T10:20:46;1.68;89.25
71173;DHT22;58875;51.996;4.504;2022-12-10T10:23:15;1.74;88.94
71173;DHT22;58875;51.996;4.504;2022-12-10T10:25:42;1.73;88.91
71173;DHT22;58875;51.996;4.504;2022-12-10T10:28:11;1.74;88.96
71173;DHT22;58875;51.996;4.504;2022-12-10T10:30:42;1.63;89.16
71173;DHT22;58875;51.996;4.504;2022-12-10T10:33:11;1.62;89.42
71173;DHT22;58875;51.996;4.504;2022-12-10T10:35:56;1.63;89.44
71173;DHT22;58875;51.996;4.504;2022-12-10T10:38:27;1.60;89.27
71173;DHT22;58875;51.996;4.504;2022-12-10T10:41:01;1.68;89.15
71173;DHT22;58875;51.996;4.504;2022-12-10T10:43:31;1.56;89.16
71173;DHT22;58875;51.996;4.504;2022-12-10T10:46:21;1.62;89.46
71173;DHT22;58875;51.996;4.504;2022-12-10T10:48:45;1.73;89.19
71173;DHT22;58875;51.996;4.504;2022-12-10T10:53:49;1.74;89.25
71173;DHT22;58875;51.996;4.504;2022-12-10T10:56:27;1.84;89.11
71173;DHT22;58875;51.996;4.504;2022-12-10T11:04:20;1.74;89.41
71173;DHT22;58875;51.996;4.504;2022-12-10T11:06:54;1.84;89.18
71173;DHT22;58875;51.996;4.504;2022-12-10T11:09:26;2.04;89.16
71173;DHT22;58875;51.996;4.504;2022-12-10T11:12:01;2.04;88.61
71173;DHT22;58875;51.996;4.504;2022-12-10T11:14:40;1.98;88.64
71173;DHT22;58875;51.996;4.504;2022-12-10T11:20:16;2.07;88.12
71173;DHT22;58875;51.996;4.504;2022-12-10T11:22:50;2.07;88.18
71173;DHT22;58875;51.996;4.504;2022-12-10T11:25:18;2.04;88.39
71173;DHT22;58875;51.996;4.504;2022-12-10T11:28:10;2.04;88.29
71173;DHT22;58875;51.996;4.504;2022-12-10T11:30:50;2.08;88.58
71173;DHT22;58875;51.996;4.504;2022-12-10T11:33:38;2.05;88.55
71173;DHT22;58875;51.996;4.504;2022-12-10T11:39:16;1.98;88.52
71173;DHT22;58875;51.996;4.504;2022-12-10T11:42:04;2.12;88.77
71173;DHT22;58875;51.996;4.504;2022-12-10T11:45:06;2.12;88.70
71173;DHT22;58875;51.996;4.504;2022-12-10T11:48:09;2.04;88.90
71173;DHT22;58875;51.996;4.504;2022-12-10T11:50:55;2.10;89.08
71173;DHT22;58875;51.996;4.504;2022-12-10T11:53:41;2.10;88.57
71173;DHT22;58875;51.996;4.504;2022-12-10T11:56:26;2.07;88.85
71173;DHT22;58875;51.996;4.504;2022-12-10T12:01:36;2.41;88.72
71173;DHT22;58875;51.996;4.504;2022-12-10T12:15:40;2.28;88.33
71173;DHT22;58875;51.996;4.504;2022-12-10T12:21:01;2.22;88.70
71173;DHT22;58875;51.996;4.504;2022-12-10T12:26:28;2.14;88.98
71173;DHT22;58875;51.996;4.504;2022-12-10T12:31:48;2.39;88.45
71173;DHT22;58875;51.996;4.504;2022-12-10T12:37:14;2.34;88.39
71173;DHT22;58875;51.996;4.504;2022-12-10T12:40:13;2.45;88.37
71173;DHT22;58875;51.996;4.504;2022-12-10T12:42:50;2.50;88.05
71173;DHT22;58875;51.996;4.504;2022-12-10T12:51:05;2.31;88.12
71173;DHT22;58875;51.996;4.504;2022-12-10T12:53:33;2.29;88.44
71173;DHT22;58875;51.996;4.504;2022-12-10T12:56:22;2.28;88.46
71173;DHT22;58875;51.996;4.504;2022-12-10T13:04:06;2.36;88.50
71173;DHT22;58875;51.996;4.504;2022-12-10T13:06:36;2.15;88.55
71173;DHT22;58875;51.996;4.504;2022-12-10T13:14:34;2.17;88.60
71173;DHT22;58875;51.996;4.504;2022-12-10T13:17:08;2.08;88.96
71173;DHT22;58875;51.996;4.504;2022-12-10T13:19:34;2.08;89.25
71173;DHT22;58875;51.996;4.504;2022-12-10T13:29:51;2.20;89.22
71173;DHT22;58875;51.996;4.504;2022-12-10T13:49:03;2.55;88.95
71173;DHT22;58875;51.996;4.504;2022-12-10T13:59:47;2.92;88.62
71173;DHT22;58875;51.996;4.504;2022-12-10T14:02:42;2.96;88.29
71173;DHT22;58875;51.996;4.504;2022-12-10T14:08:02;2.94;87.81
71173;DHT22;58875;51.996;4.504;2022-12-10T14:10:32;2.92;87.82
71173;DHT22;58875;51.996;4.504;2022-12-10T14:13:02;2.86;87.92
71173;DHT22;58875;51.996;4.504;2022-12-10T14:15:29;2.89;88.09
71173;DHT22;58875;51.996;4.504;2022-12-10T14:18:16;2.97;87.77
71173;DHT22;58875;51.996;4.504;2022-12-10T14:20:45;2.97;87.67
71173;DHT22;58875;51.996;4.504;2022-12-10T14:23:32;2.99;87.72
71173;DHT22;58875;51.996;4.504;2022-12-10T14:26:14;2.96;87.71
71173;DHT22;58875;51.996;4.504;2022-12-10T14:28:44;2.89;87.86
71173;DHT22;58875;51.996;4.504;2022-12-10T14:31:25;2.92;88.00
71173;DHT22;58875;51.996;4.504;2022-12-10T14:33:55;2.90;87.85
71173;DHT22;58875;51.996;4.504;2022-12-10T14:36:27;2.83;88.20
71173;DHT22;58875;51.996;4.504;2022-12-10T14:38:54;2.80;88.34
71173;DHT22;58875;51.996;4.504;2022-12-10T14:41:39;2.76;88.53
71173;DHT22;58875;51.996;4.504;2022-12-10T14:44:12;2.76;88.57
71173;DHT22;58875;51.996;4.504;2022-12-10T14:46:42;2.73;88.78
71173;DHT22;58875;51.996;4.504;2022-12-10T14:49:25;2.80;88.74
71173;DHT22;58875;51.996;4.504;2022-12-10T14:51:52;2.72;88.87
71173;DHT22;58875;51.996;4.504;2022-12-10T14:54:30;2.75;88.74
71173;DHT22;58875;51.996;4.504;2022-12-10T14:57:02;2.89;88.61
71173;DHT22;58875;51.996;4.504;2022-12-10T14:59:37;2.93;88.45
71173;DHT22;58875;51.996;4.504;2022-12-10T15:02:17;3.03;88.31
71173;DHT22;58875;51.996;4.504;2022-12-10T15:04:47;3.00;88.29
71173;DHT22;58875;51.996;4.504;2022-12-10T15:07:18;3.04;88.21
71173;DHT22;58875;51.996;4.504;2022-12-10T15:09:47;3.11;88.20
71173;DHT22;58875;51.996;4.504;2022-12-10T15:12:26;3.10;88.04
71173;DHT22;58875;51.996;4.504;2022-12-10T15:14:55;3.07;88.11
71173;DHT22;58875;51.996;4.504;2022-12-10T15:17:43;3.01;88.30
71173;DHT22;58875;51.996;4.504;2022-12-10T15:20:22;3.01;88.53
71173;DHT22;58875;51.996;4.504;2022-12-10T15:22:47;3.06;88.48
71173;DHT22;58875;51.996;4.504;2022-12-10T15:25:28;3.15;88.35
71173;DHT22;58875;51.996;4.504;2022-12-10T15:27:57;3.15;88.04
71173;DHT22;58875;51.996;4.504;2022-12-10T15:30:32;3.14;88.38
71173;DHT22;58875;51.996;4.504;2022-12-10T15:32:58;3.20;88.33
71173;DHT22;58875;51.996;4.504;2022-12-10T15:35:24;3.21;88.26
71173;DHT22;58875;51.996;4.504;2022-12-10T15:37:50;3.20;88.18
71173;DHT22;58875;51.996;4.504;2022-12-10T15:40:30;3.14;88.32
71173;DHT22;58875;51.996;4.504;2022-12-10T15:45:59;3.06;88.84
71173;DHT22;58875;51.996;4.504;2022-12-10T15:48:28;3.10;88.80
71173;DHT22;58875;51.996;4.504;2022-12-10T15:50:54;3.17;88.87
71173;DHT22;58875;51.996;4.504;2022-12-10T15:53:26;3.15;88.41
71173;DHT22;58875;51.996;4.504;2022-12-10T15:55:53;3.20;88.57
71173;DHT22;58875;51.996;4.504;2022-12-10T15:58:18;3.23;88.52
71173;DHT22;58875;51.996;4.504;2022-12-10T16:00:44;3.20;88.48
71173;DHT22;58875;51.996;4.504;2022-12-10T16:03:15;3.24;88.27
71173;DHT22;58875;51.996;4.504;2022-12-10T16:05:40;3.23;88.30
71173;DHT22;58875;51.996;4.504;2022-12-10T16:08:21;3.24;88.50
71173;DHT22;58875;51.996;4.504;2022-12-10T16:10:49;3.27;88.17
71173;DHT22;58875;51.996;4.504;2022-12-10T16:13:35;3.31;88.10
71173;DHT22;58875;51.996;4.504;2022-12-10T16:16:07;3.28;88.14
71173;DHT22;58875;51.996;4.504;2022-12-10T16:18:40;3.17;88.46
71173;DHT22;58875;51.996;4.504;2022-12-10T16:21:07;3.11;88.70
71173;DHT22;58875;51.996;4.504;2022-12-10T16:23:33;3.13;88.55
71173;DHT22;58875;51.996;4.504;2022-12-10T16:26:00;3.11;88.84
71173;DHT22;58875;51.996;4.504;2022-12-10T16:28:27;3.18;88.87
71173;DHT22;58875;51.996;4.504;2022-12-10T16:30:58;3.28;88.72
71173;DHT22;58875;51.996;4.504;2022-12-10T16:33:25;3.42;88.49
71173;DHT22;58875;51.996;4.504;2022-12-10T16:35:55;3.39;88.36
71173;DHT22;58875;51.996;4.504;2022-12-10T16:38:22;3.48;88.32
71173;DHT22;58875;51.996;4.504;2022-12-10T16:40:49;3.48;88.15
71173;DHT22;58875;51.996;4.504;2022-12-10T16:43:20;3.47;88.19
71173;DHT22;58875;51.996;4.504;2022-12-10T16:45:47;3.62;88.05
71173;DHT22;58875;51.996;4.504;2022-12-10T16:48:13;3.56;87.77
71173;DHT22;58875;51.996;4.504;2022-12-10T16:50:40;3.56;87.96
71173;DHT22;58875;51.996;4.504;2022-12-10T16:53:18;3.59;87.97
71173;DHT22;58875;51.996;4.504;2022-12-10T16:55:46;3.58;88.06
71173;DHT22;58875;51.996;4.504;2022-12-10T16:58:13;3.59;87.92
71173;DHT22;58875;51.996;4.504;2022-12-10T17:00:45;3.52;88.10
71173;DHT22;58875;51.996;4.504;2022-12-10T17:03:15;3.58;88.10
71173;DHT22;58875;51.996;4.504;2022-12-10T17:05:52;3.62;87.98
71173;DHT22;58875;51.996;4.504;2022-12-10T17:08:19;3.59;87.43
71173;DHT22;58875;51.996;4.504;2022-12-10T17:10:47;3.54;87.54
71173;DHT22;58875;51.996;4.504;2022-12-10T17:13:34;3.48;87.53
71173;DHT22;58875;51.996;4.504;2022-12-10T17:16:01;3.48;87.72
71173;DHT22;58875;51.996;4.504;2022-12-10T17:18:27;3.47;87.66
71173;DHT22;58875;51.996;4.504;2022-12-10T17:20:52;3.45;87.88
71173;DHT22;58875;51.996;4.504;2022-12-10T17:23:18;3.45;87.80
71173;DHT22;58875;51.996;4.504;2022-12-10T17:25:44;3.39;87.78
71173;DHT22;58875;51.996;4.504;2022-12-10T17:28:14;3.47;87.84
71173;DHT22;58875;51.996;4.504;2022-12-10T17:30:41;3.54;87.69
71173;DHT22;58875;51.996;4.504;2022-12-10T17:33:11;3.61;87.63
71173;DHT22;58875;51.996;4.504;2022-12-10T17:35:40;3.61;87.49
71173;DHT22;58875;51.996;4.504;2022-12-10T17:38:14;3.65;87.48
71173;DHT22;58875;51.996;4.504;2022-12-10T17:40:40;3.71;87.45
71173;DHT22;58875;51.996;4.504;2022-12-10T17:43:06;3.69;87.24
71173;DHT22;58875;51.996;4.504;2022-12-10T17:45:31;3.59;86.75
71173;DHT22;58875;51.996;4.504;2022-12-10T17:47:57;3.52;86.69
71173;DHT22;58875;51.996;4.504;2022-12-10T17:50:30;3.39;86.68
71173;DHT22;58875;51.996;4.504;2022-12-10T17:52:59;3.34;86.60
71173;DHT22;58875;51.996;4.504;2022-12-10T17:55:26;3.32;86.79
71173;DHT22;58875;51.996;4.504;2022-12-10T17:57:52;3.34;87.01
71173;DHT22;58875;51.996;4.504;2022-12-10T18:00:21;3.37;87.11
71173;DHT22;58875;51.996;4.504;2022-12-10T18:02:47;3.47;87.10
71173;DHT22;58875;51.996;4.504;2022-12-10T18:05:14;3.52;86.98
71173;DHT22;58875;51.996;4.504;2022-12-10T18:07:40;3.47;86.81